createdAt,value
2018-12-14T00:08:40.333Z,1.4
2018-12-14T00:18:54.146Z,1.4
2018-12-14T00:29:07.808Z,1.3
2018-12-14T00:39:21.878Z,1.4
2018-12-14T00:49:37.278Z,1.4
2018-12-14T00:59:51.308Z,1.4
2018-12-14T01:10:06.894Z,1.3
2018-12-14T01:20:22.389Z,1.2
2018-12-14T01:30:36.117Z,1.2
2018-12-14T01:40:50.218Z,1.3
2018-12-14T01:51:03.976Z,1.2
2018-12-14T02:01:17.769Z,1
2018-12-14T02:11:31.423Z,0.9
2018-12-14T02:21:45.619Z,1
2018-12-14T02:31:59.677Z,0.9
2018-12-14T02:42:14.674Z,0.9
2018-12-14T02:52:28.722Z,0.9
2018-12-14T03:02:44.041Z,0.9
2018-12-14T03:12:57.710Z,0.9
2018-12-14T03:23:11.948Z,0.9
2018-12-14T03:33:26.701Z,0.8
2018-12-14T03:43:41.743Z,1.1
2018-12-14T03:53:56.064Z,1.1
2018-12-14T04:04:11.051Z,1.2
2018-12-14T04:14:26.461Z,1.3
2018-12-14T04:24:41.871Z,1.2
2018-12-14T04:34:55.482Z,1.2
2018-12-14T04:45:10.044Z,1.1
2018-12-14T04:55:23.968Z,0.9
2018-12-14T05:05:37.597Z,0.7
2018-12-14T05:15:51.364Z,0.6
2018-12-14T05:26:06.030Z,0.5
2018-12-14T05:36:20.802Z,0.7
2018-12-14T05:46:35.078Z,0.5
2018-12-14T05:56:49.649Z,0.5
2018-12-14T06:07:03.672Z,0.5
2018-12-14T06:17:18.475Z,0.5
2018-12-14T06:27:32.435Z,0.3
2018-12-14T06:37:47.714Z,0.3
2018-12-14T06:48:02.221Z,0.2
2018-12-14T06:58:17.695Z,0.5
2018-12-14T07:08:31.587Z,0.5
2018-12-14T07:18:45.341Z,0.5
2018-12-14T07:29:00.736Z,0.6
2018-12-14T07:39:15.043Z,0.5
2018-12-14T07:49:29.901Z,0.6
2018-12-14T07:59:44.838Z,0.7
2018-12-14T08:09:59.235Z,0.5
2018-12-14T08:20:13.781Z,0.5
2018-12-14T08:30:28.209Z,0.5
2018-12-14T08:40:43.154Z,0.7
2018-12-14T08:50:58.271Z,0.9
2018-12-14T09:01:13.913Z,0.9
2018-12-14T09:11:27.716Z,1.1
2018-12-14T09:21:43.184Z,1.5
2018-12-14T09:31:58.828Z,1.9
2018-12-14T09:42:12.589Z,2
2018-12-14T09:52:27.726Z,2.1
2018-12-14T10:02:42.576Z,2.4
2018-12-14T10:12:57.926Z,2.7
2018-12-14T10:23:12.889Z,2.9
2018-12-14T10:33:26.917Z,2.3
2018-12-14T10:43:41.220Z,2.3
2018-12-14T10:53:56.437Z,2.4
2018-12-14T11:04:11.972Z,2.5
2018-12-14T11:14:27.118Z,2.5
2018-12-14T11:24:42.013Z,2.5
2018-12-14T11:34:57.177Z,2.5
2018-12-14T11:45:11.722Z,2.6
2018-12-14T11:55:26.204Z,2.7
2018-12-14T12:05:41.879Z,2.7
2018-12-14T12:15:55.810Z,2.7
2018-12-14T12:26:10.284Z,2.7
2018-12-14T12:36:25.636Z,2.9
2018-12-14T12:46:39.275Z,2.8
2018-12-14T12:56:54.164Z,2.8
2018-12-14T13:07:09.198Z,2.8
2018-12-14T13:17:24.343Z,2.7
2018-12-14T13:27:38.174Z,2.7
2018-12-14T13:37:52.172Z,2.7
2018-12-14T13:48:06.506Z,2.7
2018-12-14T13:58:21.024Z,2.7
2018-12-14T14:08:36.089Z,2.6
2018-12-14T14:18:50.095Z,2.7
2018-12-14T14:29:03.792Z,2.6
2018-12-14T14:39:17.654Z,2.6
2018-12-14T14:49:31.786Z,2.4
2018-12-14T14:59:45.526Z,2.4
2018-12-14T15:09:59.440Z,2.5
2018-12-14T15:20:14.301Z,2.4
2018-12-14T15:30:29.489Z,2.4
2018-12-14T15:40:43.979Z,2.3
2018-12-14T15:50:58.216Z,2.3
2018-12-14T16:01:12.717Z,2.3
2018-12-14T16:11:26.503Z,2.3
2018-12-14T16:21:41.686Z,2.3
2018-12-14T16:31:56.388Z,2.3
2018-12-14T16:42:11.046Z,2.4
2018-12-14T16:52:26.082Z,2.3
2018-12-14T17:02:41.201Z,2.3
2018-12-14T17:12:56.700Z,2.3
2018-12-14T17:23:10.794Z,2.4
2018-12-14T17:33:25.997Z,2.2
2018-12-14T17:43:40.217Z,2.2
2018-12-14T17:53:54.585Z,2.2
2018-12-14T18:04:09.038Z,2.1
2018-12-14T18:14:23.863Z,2
2018-12-14T18:24:38.185Z,2
2018-12-14T18:34:53.100Z,2
2018-12-14T18:45:08.350Z,2.1
2018-12-14T18:55:22.928Z,2
2018-12-14T19:05:36.731Z,1.9
2018-12-14T19:15:51.568Z,2
2018-12-14T19:26:06.930Z,2
2018-12-14T19:36:20.781Z,1.9
2018-12-14T19:46:36.331Z,1.9
2018-12-14T19:56:51.026Z,1.9
2018-12-14T20:07:05.016Z,1.9
2018-12-14T20:17:18.716Z,1.9
2018-12-14T20:27:33.549Z,1.9
2018-12-14T20:37:47.710Z,1.9
2018-12-14T20:48:01.908Z,1.9
2018-12-14T20:58:15.699Z,2
2018-12-14T21:08:29.452Z,1.9
2018-12-14T21:18:44.136Z,1.9
2018-12-14T21:28:58.563Z,1.8
2018-12-14T21:39:13.881Z,1.8
2018-12-14T21:49:29.023Z,1.8
2018-12-14T21:59:42.636Z,1.8
2018-12-14T22:09:57.436Z,1.8
2018-12-14T22:20:12.162Z,1.7
2018-12-14T22:30:26.856Z,1.6
2018-12-14T22:40:41.538Z,1.6
2018-12-14T22:50:57.034Z,1.7
2018-12-14T23:01:12.059Z,1.7
2018-12-14T23:11:27.187Z,1.6
2018-12-14T23:21:41.695Z,1.5
2018-12-14T23:31:56.421Z,1.5
2018-12-14T23:42:11.092Z,1.5
2018-12-14T23:52:25.458Z,1.6
